Terminal Aerodrome Forecast
Issued by NWS

Home | Current Version | Previous Version | Text Only | Print | Product List | Glossary On
Versions: 1 2 3 4 5 6 7 8 9 10 11 12
000
FTUS45 KABQ 202300
TAFAEG
TAF
KAEG 202336Z 2100/2124 12014G22KT P6SM SCT090
     FM210400 11009G18KT P6SM FEW050
     FM211700 12012G22KT P6SM SCT050
     FM212100 13012G22KT P6SM VCTS BKN060CB=

USA.gov is the U.S. government's official web portal to all federal, state and local government web resources and services.